Time;durP1;ratioP1;P1;durP2;ratioP2;P2;SDS_P1;SDS_P2;PMS_P1;PMS_P2;Temp;Humidity;BMP_temperature;BMP_pressure;BME280_temperature;BME280_humidity;BME280_pressure;Samples;Min_cycle;Max_cycle;Signal;HPM_P1;HPM_P2
2022/01/08 05:01:13;;;;;;;3.60;1.90;;;3.80;99.70;;;;;;5010767;28;20722;-65
2022/01/08 05:03:41;;;;;;;3.70;2.10;;;3.80;99.70;;;;;;5010938;28;20273;-66
2022/01/08 05:06:07;;;;;;;3.57;2.13;;;3.70;99.70;;;;;;5014538;28;20873;-64
2022/01/08 05:08:34;;;;;;;3.77;2.10;;;3.60;99.70;;;;;;5013573;28;20445;-64
2022/01/08 05:11:01;;;;;;;4.17;2.00;;;3.40;99.70;;;;;;5014217;28;20462;-66
2022/01/08 05:13:28;;;;;;;5.60;2.13;;;3.40;99.70;;;;;;5014287;28;20448;-65
2022/01/08 05:15:55;;;;;;;4.53;2.03;;;3.40;99.70;;;;;;5014275;28;20457;-65
2022/01/08 05:18:24;;;;;;;3.70;1.90;;;3.30;99.70;;;;;;5013811;28;20453;-65
2022/01/08 05:20:56;;;;;;;3.43;1.80;;;3.40;99.70;;;;;;5014236;28;20480;-64
2022/01/08 05:23:23;;;;;;;3.40;1.90;;;3.40;99.70;;;;;;5013977;28;20492;-65
2022/01/08 05:25:50;;;;;;;4.60;2.30;;;3.40;99.70;;;;;;5013444;28;20449;-66
2022/01/08 05:28:16;;;;;;;4.97;2.00;;;3.40;99.70;;;;;;5013524;28;20979;-65
2022/01/08 05:30:43;;;;;;;4.67;2.00;;;3.30;99.70;;;;;;5013769;28;20990;-65
2022/01/08 05:33:10;;;;;;;4.20;1.93;;;3.10;99.70;;;;;;5013769;28;20446;-66
2022/01/08 05:35:38;;;;;;;4.10;1.90;;;3.10;99.70;;;;;;5013586;28;20449;-65
2022/01/08 05:38:05;;;;;;;3.83;2.27;;;3.10;99.70;;;;;;5013497;28;20860;-66
2022/01/08 05:40:31;;;;;;;3.53;1.90;;;3.20;99.70;;;;;;5022365;23;20492;-65
2022/01/08 05:42:58;;;;;;;3.67;2.00;;;3.20;99.70;;;;;;5032490;28;20822;-64
2022/01/08 05:45:25;;;;;;;11.37;3.00;;;3.30;99.70;;;;;;5032872;28;20456;-67
2022/01/08 05:47:52;;;;;;;6.00;2.70;;;3.30;99.70;;;;;;5033018;28;20440;-65
2022/01/08 05:50:18;;;;;;;4.40;2.40;;;3.20;99.70;;;;;;5033198;28;20460;-65
2022/01/08 05:52:48;;;;;;;4.20;2.10;;;3.00;99.70;;;;;;5033055;28;20452;-67
2022/01/08 05:55:15;;;;;;;3.83;2.17;;;3.00;99.70;;;;;;5033135;28;20507;-65
2022/01/08 05:57:42;;;;;;;3.50;1.87;;;3.00;99.70;;;;;;5032818;28;20960;-66
2022/01/08 06:00:10;;;;;;;4.10;2.33;;;3.00;99.70;;;;;;5032847;28;20448;-65
2022/01/08 06:02:37;;;;;;;6.53;2.80;;;2.90;99.70;;;;;;5033059;28;21123;-65
2022/01/08 06:05:05;;;;;;;4.17;2.40;;;2.90;99.70;;;;;;5032395;28;20485;-65
2022/01/08 06:07:31;;;;;;;4.80;2.30;;;2.80;99.70;;;;;;5032990;28;20472;-65
2022/01/08 06:09:59;;;;;;;3.50;1.90;;;2.80;99.70;;;;;;5032299;28;20444;-67
2022/01/08 06:12:26;;;;;;;3.10;1.90;;;2.90;99.70;;;;;;5032853;28;20837;-67
2022/01/08 06:14:53;;;;;;;2.80;1.80;;;2.90;99.70;;;;;;5032652;28;20445;-65
2022/01/08 06:17:20;;;;;;;3.20;1.70;;;2.90;99.70;;;;;;5032929;28;20503;-65
2022/01/08 06:19:47;;;;;;;3.50;1.70;;;3.00;99.70;;;;;;5032294;28;20451;-65
2022/01/08 06:22:13;;;;;;;2.77;1.60;;;2.90;99.70;;;;;;5032565;28;20838;-67
2022/01/08 06:24:40;;;;;;;2.73;1.70;;;2.90;99.70;;;;;;5032096;28;20483;-66
2022/01/08 06:27:08;;;;;;;2.60;1.40;;;3.00;99.70;;;;;;5031818;28;20452;-65
2022/01/08 06:29:35;;;;;;;3.63;1.50;;;3.00;99.70;;;;;;5032163;28;20565;-65
2022/01/08 06:32:02;;;;;;;2.20;1.43;;;2.90;99.70;;;;;;5032321;28;20467;-66
2022/01/08 06:34:29;;;;;;;2.63;1.50;;;2.90;99.70;;;;;;5031189;28;21020;-65
2022/01/08 06:36:55;;;;;;;3.40;2.00;;;2.90;99.70;;;;;;5032404;28;20441;-65
2022/01/08 06:39:22;;;;;;;2.20;1.50;;;2.80;99.70;;;;;;5031888;28;20467;-67
2022/01/08 06:41:49;;;;;;;3.13;1.80;;;2.80;99.70;;;;;;5032405;28;20476;-67
2022/01/08 06:44:17;;;;;;;2.40;1.50;;;2.70;99.70;;;;;;5031894;28;20503;-64
2022/01/08 06:46:44;;;;;;;2.63;1.40;;;2.70;99.70;;;;;;5032174;28;20441;-66
2022/01/08 06:49:11;;;;;;;2.33;1.50;;;2.50;99.70;;;;;;5031708;28;20444;-64
2022/01/08 06:51:37;;;;;;;3.60;1.50;;;2.50;99.70;;;;;;5031986;28;20470;-66
2022/01/08 06:54:04;;;;;;;2.70;1.63;;;2.40;99.70;;;;;;5032099;28;20437;-65
2022/01/08 06:56:31;;;;;;;3.90;1.57;;;2.40;99.70;;;;;;5031950;28;20449;-66
2022/01/08 06:58:58;;;;;;;2.90;1.60;;;2.50;99.70;;;;;;5031673;28;20787;-66
2022/01/08 07:01:26;;;;;;;2.27;1.43;;;2.50;99.70;;;;;;5031766;28;20475;-66
2022/01/08 07:03:55;;;;;;;2.67;1.50;;;2.50;99.70;;;;;;5031702;28;20503;-65
2022/01/08 07:06:21;;;;;;;2.40;1.60;;;2.60;99.70;;;;;;5031681;28;20864;-65
2022/01/08 07:08:48;;;;;;;2.30;1.53;;;2.60;99.70;;;;;;5031359;28;20567;-66
2022/01/08 07:11:16;;;;;;;3.20;1.80;;;2.60;99.70;;;;;;5031550;28;20464;-66
2022/01/08 07:13:43;;;;;;;2.50;1.70;;;2.70;99.70;;;;;;5031802;28;20448;-66
2022/01/08 07:16:10;;;;;;;4.03;2.03;;;2.60;99.70;;;;;;5031690;28;20445;-66
2022/01/08 07:18:38;;;;;;;3.30;2.00;;;2.60;99.70;;;;;;5031660;28;20825;-65
2022/01/08 07:21:05;;;;;;;4.87;2.03;;;2.70;99.70;;;;;;5031502;28;20475;-67
2022/01/08 07:23:32;;;;;;;3.60;2.10;;;2.70;99.70;;;;;;5031469;28;20480;-66
2022/01/08 07:25:58;;;;;;;5.50;1.90;;;2.70;99.70;;;;;;5030947;28;20449;-66
2022/01/08 07:28:25;;;;;;;5.10;2.20;;;2.60;99.70;;;;;;5030755;28;20449;-66
2022/01/08 07:30:52;;;;;;;4.67;2.60;;;2.60;99.70;;;;;;5031483;28;20469;-64
2022/01/08 07:33:18;;;;;;;4.20;2.73;;;2.60;99.70;;;;;;5028450;28;20453;-66
2022/01/08 07:35:46;;;;;;;4.50;2.83;;;2.60;99.70;;;;;;5030364;28;20463;-67
2022/01/08 07:38:14;;;;;;;6.13;2.50;;;2.60;99.70;;;;;;5030066;28;20452;-67
2022/01/08 07:40:41;;;;;;;5.43;3.10;;;2.60;99.70;;;;;;5031067;28;20486;-65
2022/01/08 07:43:08;;;;;;;4.87;2.60;;;2.50;99.70;;;;;;5030916;28;20458;-67
2022/01/08 07:45:34;;;;;;;6.00;2.53;;;2.30;99.70;;;;;;5031330;28;20480;-65
2022/01/08 07:48:01;;;;;;;3.53;2.07;;;2.50;99.70;;;;;;5030891;28;20445;-65
2022/01/08 07:50:28;;;;;;;4.63;2.67;;;2.40;99.70;;;;;;5031031;28;20567;-67
2022/01/08 07:52:56;;;;;;;5.57;2.73;;;2.40;99.70;;;;;;5031161;28;20788;-64
2022/01/08 07:55:23;;;;;;;4.30;2.33;;;2.50;99.70;;;;;;5031135;28;20802;-64
2022/01/08 07:57:50;;;;;;;5.80;2.87;;;2.50;99.70;;;;;;5030729;28;20452;-64
2022/01/08 08:00:17;;;;;;;9.57;3.40;;;2.40;99.70;;;;;;5031135;28;20441;-64
2022/01/08 08:02:44;;;;;;;5.27;2.60;;;2.50;99.70;;;;;;5031051;28;20445;-65
2022/01/08 08:05:11;;;;;;;7.90;2.50;;;2.50;99.70;;;;;;5031016;28;20483;-65
2022/01/08 08:07:38;;;;;;;15.60;5.97;;;2.50;99.70;;;;;;5031036;28;20455;-68
2022/01/08 08:10:10;;;;;;;6.70;2.90;;;2.50;99.70;;;;;;5030660;28;20491;-65
2022/01/08 08:12:37;;;;;;;5.27;3.20;;;2.50;99.70;;;;;;5030792;28;20462;-64
2022/01/08 08:15:05;;;;;;;4.80;2.50;;;2.60;99.70;;;;;;5030968;28;20452;-66
2022/01/08 08:17:33;;;;;;;7.43;3.50;;;2.60;99.70;;;;;;5030973;28;20437;-65
2022/01/08 08:19:59;;;;;;;8.60;4.10;;;2.60;99.70;;;;;;5030546;28;20444;-64
2022/01/08 08:22:26;;;;;;;6.43;3.30;;;2.70;99.70;;;;;;5030745;28;20821;-65
2022/01/08 08:24:53;;;;;;;7.30;3.13;;;2.70;99.70;;;;;;5030554;28;20483;-65
2022/01/08 08:27:21;;;;;;;5.27;3.07;;;2.70;99.70;;;;;;5030772;28;20444;-64
2022/01/08 08:29:48;;;;;;;7.20;3.67;;;2.70;99.70;;;;;;5030581;28;20445;-65
2022/01/08 08:32:15;;;;;;;6.30;3.30;;;2.60;99.70;;;;;;5030622;28;20476;-64
2022/01/08 08:34:41;;;;;;;6.77;3.00;;;2.60;99.70;;;;;;5030171;28;20448;-65
2022/01/08 08:37:08;;;;;;;7.13;3.10;;;2.70;99.70;;;;;;5030713;28;20475;-65
2022/01/08 08:39:35;;;;;;;7.63;3.40;;;2.60;99.70;;;;;;5033834;28;20843;-66
2022/01/08 08:42:02;;;;;;;5.53;3.07;;;2.60;99.70;;;;;;5034416;28;20483;-66
2022/01/08 08:44:30;;;;;;;8.77;4.70;;;2.60;99.70;;;;;;5034365;28;20480;-65
2022/01/08 08:46:56;;;;;;;10.63;5.07;;;2.70;99.70;;;;;;5034424;28;20477;-65
2022/01/08 08:49:23;;;;;;;9.17;4.20;;;2.80;99.70;;;;;;5034394;28;20771;-65
2022/01/08 08:51:50;;;;;;;8.77;3.90;;;2.70;99.70;;;;;;5034340;28;20464;-66
2022/01/08 08:54:16;;;;;;;5.90;3.07;;;2.60;99.70;;;;;;5034313;28;20960;-66
2022/01/08 08:56:43;;;;;;;7.83;3.13;;;2.70;99.70;;;;;;5034396;28;20527;-65
2022/01/08 08:59:10;;;;;;;6.87;3.57;;;2.70;99.70;;;;;;5033872;28;20816;-66
2022/01/08 09:01:39;;;;;;;6.20;2.80;;;2.80;99.70;;;;;;5034074;28;20472;-66
2022/01/08 09:04:05;;;;;;;5.40;2.70;;;2.90;99.70;;;;;;5033995;28;20476;-64
2022/01/08 09:06:33;;;;;;;4.77;2.57;;;3.00;99.70;;;;;;5034141;28;20448;-65
2022/01/08 09:09:00;;;;;;;6.90;2.87;;;2.90;99.70;;;;;;5033559;28;20456;-65
2022/01/08 09:11:26;;;;;;;5.33;2.97;;;3.00;99.70;;;;;;5033537;28;20463;-65
2022/01/08 09:13:53;;;;;;;4.77;2.60;;;3.00;99.70;;;;;;5033632;28;20948;-65
2022/01/08 09:16:21;;;;;;;5.30;3.50;;;3.00;99.70;;;;;;5033866;28;20448;-64
2022/01/08 09:18:49;;;;;;;7.30;3.70;;;3.00;99.70;;;;;;5033252;28;20444;-67
2022/01/08 09:21:16;;;;;;;5.93;2.70;;;3.00;99.70;;;;;;5033572;28;20499;-66
2022/01/08 09:23:42;;;;;;;5.80;3.00;;;3.00;99.70;;;;;;5033455;28;20448;-66
2022/01/08 09:26:09;;;;;;;5.77;2.70;;;3.10;99.70;;;;;;5029481;28;21081;-67
2022/01/08 09:28:36;;;;;;;4.97;2.27;;;3.20;99.70;;;;;;5031540;28;20456;-64
2022/01/08 09:31:03;;;;;;;8.47;2.80;;;3.30;99.70;;;;;;5025266;28;20464;-64
2022/01/08 09:33:30;;;;;;;4.97;2.57;;;3.20;99.70;;;;;;5033398;28;20451;-65
2022/01/08 09:35:59;;;;;;;6.13;2.60;;;3.30;99.70;;;;;;5033448;28;20444;-65
2022/01/08 09:38:26;;;;;;;7.00;3.13;;;3.10;99.70;;;;;;5030954;28;20969;-66
2022/01/08 09:40:55;;;;;;;7.00;2.90;;;3.20;99.70;;;;;;5031484;28;21026;-66
2022/01/08 09:43:21;;;;;;;5.47;2.53;;;3.10;99.70;;;;;;5031807;28;20449;-64
2022/01/08 09:45:48;;;;;;;5.00;2.70;;;3.10;99.70;;;;;;5031964;28;20487;-66
2022/01/08 09:48:15;;;;;;;5.50;2.90;;;3.20;99.70;;;;;;5030076;28;20942;-66
2022/01/08 09:50:43;;;;;;;5.30;2.67;;;3.40;99.70;;;;;;5020978;28;20485;-65
2022/01/08 09:53:11;;;;;;;5.60;2.80;;;3.40;99.70;;;;;;5026074;28;20516;-66
2022/01/08 09:55:38;;;;;;;5.73;3.13;;;3.40;99.70;;;;;;5024976;28;20500;-65
2022/01/08 09:58:05;;;;;;;5.83;2.93;;;3.50;99.70;;;;;;5031022;28;20836;-65
2022/01/08 10:00:33;;;;;;;5.10;2.80;;;3.40;99.70;;;;;;5028370;28;20463;-65
2022/01/08 10:03:15;;;;;;;7.20;2.80;;;3.40;99.70;;;;;;5029485;28;20444;-65
2022/01/08 10:05:46;;;;;;;6.30;3.00;;;3.50;99.70;;;;;;5030843;28;20480;-65
2022/01/08 10:08:15;;;;;;;8.80;2.80;;;3.50;99.70;;;;;;5015743;28;20484;-65
2022/01/08 10:10:55;;;;;;;7.23;3.07;;;3.60;99.70;;;;;;5028675;28;20883;-66
2022/01/08 10:13:24;;;;;;;8.03;3.63;;;3.50;99.70;;;;;;5029631;28;20492;-65
2022/01/08 10:18:36;;;;;;;8.03;3.53;;;3.60;99.70;;;;;;5021457;28;20528;-66
2022/01/08 10:21:17;;;;;;;10.37;3.60;;;3.70;99.70;;;;;;5032055;28;20504;-64
2022/01/08 10:23:46;;;;;;;6.43;3.30;;;3.70;99.70;;;;;;5012886;28;20448;-65
2022/01/08 10:26:16;;;;;;;9.27;5.13;;;3.80;99.70;;;;;;5013145;28;20525;-66
2022/01/08 10:28:44;;;;;;;6.70;3.80;;;3.90;99.70;;;;;;5029075;28;20551;-65
2022/01/08 10:31:13;;;;;;;5.67;3.30;;;4.00;99.70;;;;;;5022430;28;20487;-64
2022/01/08 10:33:41;;;;;;;7.30;3.10;;;3.90;99.70;;;;;;5024165;28;20464;-65
2022/01/08 10:36:09;;;;;;;6.67;3.17;;;3.80;99.70;;;;;;5031265;28;20519;-65
2022/01/08 10:38:36;;;;;;;9.17;2.73;;;3.70;99.70;;;;;;5025143;28;20456;-65
2022/01/08 10:41:11;;;;;;;8.03;2.80;;;3.70;99.70;;;;;;5023553;28;20483;-64
2022/01/08 10:43:38;;;;;;;6.90;3.17;;;3.70;99.70;;;;;;5019649;28;20470;-64
2022/01/08 10:46:11;;;;;;;8.37;3.10;;;3.60;99.70;;;;;;5025311;28;20485;-65
2022/01/08 10:48:38;;;;;;;11.97;2.80;;;3.60;99.70;;;;;;5024425;28;20548;-65
2022/01/08 10:51:10;;;;;;;6.70;2.60;;;3.60;99.70;;;;;;5025742;28;20483;-64
2022/01/08 10:53:59;;;;;;;4.30;2.43;;;3.50;99.70;;;;;;5025527;28;20454;-65
2022/01/08 10:56:29;;;;;;;5.47;2.43;;;3.50;99.70;;;;;;5015443;28;20442;-64
2022/01/08 10:59:10;;;;;;;5.20;2.50;;;3.80;99.70;;;;;;5024088;28;20817;-66
2022/01/08 11:01:42;;;;;;;5.47;2.33;;;3.80;99.70;;;;;;5023471;28;20480;-67
2022/01/08 11:04:10;;;;;;;7.37;2.50;;;3.70;99.70;;;;;;5019982;28;20464;-65
2022/01/08 11:06:57;;;;;;;6.50;2.60;;;3.70;99.70;;;;;;5012239;28;20998;-65
2022/01/08 11:09:25;;;;;;;6.80;2.53;;;3.70;99.70;;;;;;5016660;28;20444;-67
2022/01/08 11:11:54;;;;;;;12.37;4.40;;;3.70;99.70;;;;;;5019976;28;20488;-66
2022/01/08 11:14:59;;;;;;;8.50;3.70;;;3.80;99.70;;;;;;5026132;28;20453;-66
2022/01/08 11:17:14;;;;;;;4.97;2.57;;;3.90;99.70;;;;;;5015051;28;20441;-64
2022/01/08 11:19:44;;;;;;;7.73;2.90;;;3.90;99.70;;;;;;5016321;28;20464;-66
2022/01/08 11:22:13;;;;;;;5.73;2.70;;;3.90;99.70;;;;;;5022991;28;20488;-66
2022/01/08 11:24:49;;;;;;;5.60;2.60;;;4.00;99.70;;;;;;5022986;28;20449;-65
2022/01/08 11:27:22;;;;;;;6.50;2.30;;;4.00;99.70;;;;;;5025459;28;20975;-66
2022/01/08 11:29:56;;;;;;;5.47;2.40;;;3.90;99.70;;;;;;5024858;28;20903;-66
2022/01/08 11:32:24;;;;;;;5.47;3.07;;;3.80;99.70;;;;;;5026778;28;20469;-67
2022/01/08 11:34:52;;;;;;;4.87;2.60;;;3.90;99.70;;;;;;5022344;28;20441;-66
2022/01/08 11:37:21;;;;;;;7.20;3.47;;;3.90;99.70;;;;;;5021990;28;20817;-66
2022/01/08 11:39:50;;;;;;;39.40;13.70;;;3.90;99.70;;;;;;5020678;28;20449;-67
2022/01/08 11:42:20;;;;;;;6.43;2.43;;;3.60;99.70;;;;;;5019056;28;20465;-68
2022/01/08 11:44:49;;;;;;;6.77;2.97;;;3.60;99.70;;;;;;5022229;28;20445;-65
2022/01/08 11:47:17;;;;;;;10.80;3.50;;;3.60;99.70;;;;;;5019862;28;20446;-64
2022/01/08 11:49:44;;;;;;;8.73;3.90;;;3.70;99.70;;;;;;5022938;28;20449;-67
2022/01/08 11:52:14;;;;;;;6.10;2.93;;;3.60;99.70;;;;;;5021214;28;20461;-66
2022/01/08 11:54:42;;;;;;;8.47;2.90;;;3.50;99.70;;;;;;5019981;28;20438;-66
2022/01/08 11:57:16;;;;;;;8.90;3.90;;;3.60;99.70;;;;;;5021279;28;20480;-66
2022/01/08 11:59:46;;;;;;;4.80;2.67;;;3.60;99.70;;;;;;5021582;28;20458;-66
2022/01/08 12:02:14;;;;;;;6.63;3.00;;;3.70;99.70;;;;;;5022863;28;21019;-66
2022/01/08 12:04:42;;;;;;;7.17;3.10;;;3.90;99.70;;;;;;5019694;28;20446;-66
2022/01/08 12:07:35;;;;;;;7.73;2.83;;;3.90;99.70;;;;;;5020501;28;20444;-67
2022/01/08 12:10:14;;;;;;;4.97;2.20;;;3.80;99.70;;;;;;5016143;28;20442;-66
2022/01/08 12:12:45;;;;;;;5.27;2.30;;;3.90;99.70;;;;;;5019973;28;20451;-67
2022/01/08 12:15:14;;;;;;;6.60;2.73;;;4.00;99.70;;;;;;5023845;28;20441;-66
2022/01/08 12:17:55;;;;;;;5.70;2.70;;;4.10;99.70;;;;;;5025229;28;20432;-65
2022/01/08 12:20:44;;;;;;;5.33;2.50;;;4.10;99.70;;;;;;5025837;28;20456;-66
2022/01/08 12:23:32;;;;;;;4.33;2.30;;;4.30;99.70;;;;;;5030110;28;20805;-65
2022/01/08 12:26:00;;;;;;;4.83;2.03;;;4.60;99.70;;;;;;5025327;28;20472;-66
2022/01/08 12:28:57;;;;;;;7.03;2.77;;;4.70;99.70;;;;;;5023628;28;20444;-67
2022/01/08 12:31:37;;;;;;;6.30;2.65;;;4.80;99.70;;;;;;5021806;28;20516;-65
2022/01/08 12:34:42;;;;;;;5.70;2.70;;;4.70;99.70;;;;;;5030079;28;20584;-65
2022/01/08 12:37:12;;;;;;;7.40;2.50;;;4.80;99.70;;;;;;5022749;28;20464;-65
2022/01/08 12:39:56;;;;;;;5.40;2.30;;;4.50;99.70;;;;;;5014273;28;20453;-67
2022/01/08 12:42:34;;;;;;;4.33;2.40;;;4.60;99.70;;;;;;5032364;28;20476;-66
2022/01/08 12:45:02;;;;;;;5.13;2.43;;;4.50;99.70;;;;;;5034161;28;20476;-66
2022/01/08 12:47:46;;;;;;;6.63;2.50;;;4.50;99.70;;;;;;5030667;28;20900;-67
2022/01/08 12:50:33;;;;;;;6.53;2.90;;;4.40;99.70;;;;;;5026809;28;20449;-66
2022/01/08 12:53:30;;;;;;;4.77;2.20;;;4.30;99.70;;;;;;5021858;28;20463;-63
2022/01/08 12:56:14;;;;;;;4.10;2.40;;;4.00;99.70;;;;;;5021786;28;20867;-65
2022/01/08 12:58:52;;;;;;;7.83;2.90;;;3.90;99.70;;;;;;5024387;28;20470;-65
2022/01/08 13:01:21;;;;;;;5.20;2.40;;;3.90;99.70;;;;;;5027350;28;20862;-65
2022/01/08 13:03:51;;;;;;;4.20;2.30;;;4.00;99.70;;;;;;5022035;28;20981;-66
2022/01/08 13:06:27;;;;;;;4.50;2.40;;;4.00;99.70;;;;;;5028411;28;20504;-66
2022/01/08 13:08:55;;;;;;;4.50;2.03;;;3.80;99.70;;;;;;5032909;28;20949;-67
2022/01/08 13:11:24;;;;;;;5.83;2.37;;;3.90;99.70;;;;;;5031601;28;20474;-64
2022/01/08 13:13:55;;;;;;;4.50;2.27;;;4.00;99.70;;;;;;5033266;28;20444;-66
2022/01/08 13:16:25;;;;;;;7.33;2.70;;;3.90;99.70;;;;;;5032707;28;20503;-65
2022/01/08 13:18:55;;;;;;;5.47;2.47;;;3.90;99.70;;;;;;5031409;28;20449;-66
2022/01/08 13:21:25;;;;;;;7.00;2.60;;;3.90;99.70;;;;;;5031613;28;20476;-65
2022/01/08 13:23:54;;;;;;;5.27;2.60;;;3.90;99.70;;;;;;5031109;28;20449;-65
2022/01/08 13:26:28;;;;;;;5.07;2.50;;;3.70;99.70;;;;;;5030787;28;20483;-65
2022/01/08 13:28:55;;;;;;;6.43;2.77;;;3.70;99.70;;;;;;5030549;28;20452;-66
2022/01/08 13:31:39;;;;;;;5.20;2.80;;;3.60;99.70;;;;;;5031016;28;21000;-66
2022/01/08 13:34:07;;;;;;;4.80;2.70;;;3.60;99.70;;;;;;5030454;28;20808;-67
2022/01/08 13:36:33;;;;;;;5.57;2.77;;;3.60;99.70;;;;;;5031441;28;20445;-66
2022/01/08 13:39:00;;;;;;;6.40;2.97;;;3.80;99.70;;;;;;5026574;28;20455;-67
2022/01/08 13:41:33;;;;;;;5.83;2.40;;;3.80;99.70;;;;;;5017215;28;20582;-66
2022/01/08 13:44:04;;;;;;;9.00;3.63;;;3.50;99.70;;;;;;5018518;28;20490;-66
2022/01/08 13:46:34;;;;;;;10.90;4.10;;;3.70;99.70;;;;;;5026828;28;20864;-66
2022/01/08 13:49:02;;;;;;;7.47;2.87;;;3.70;99.70;;;;;;5021327;28;20480;-67
2022/01/08 13:51:32;;;;;;;4.67;2.63;;;3.60;99.70;;;;;;5035558;23;20505;-65
2022/01/08 13:54:01;;;;;;;5.30;2.90;;;3.60;99.70;;;;;;5024195;28;21030;-66
2022/01/08 13:56:29;;;;;;;6.40;2.60;;;3.70;99.70;;;;;;5030539;28;20440;-66
2022/01/08 13:59:10;;;;;;;4.90;2.70;;;3.70;99.70;;;;;;5032202;28;20449;-64
2022/01/08 14:01:43;;;;;;;5.90;2.70;;;3.60;99.70;;;;;;5016194;28;20466;-65
2022/01/08 14:04:11;;;;;;;5.13;2.83;;;3.70;99.70;;;;;;5012916;28;20769;-65
2022/01/08 14:06:40;;;;;;;5.93;2.53;;;3.70;99.70;;;;;;5012910;28;20478;-64
2022/01/08 14:09:09;;;;;;;5.00;2.80;;;3.60;99.70;;;;;;5012197;28;20446;-65
2022/01/08 14:11:36;;;;;;;5.23;2.73;;;3.50;99.70;;;;;;5012757;28;20469;-64
2022/01/08 14:14:08;;;;;;;6.40;3.03;;;3.30;99.70;;;;;;5008634;28;20453;-65
2022/01/08 14:16:39;;;;;;;6.50;2.90;;;3.20;99.70;;;;;;5008674;28;20442;-65
2022/01/08 14:19:10;;;;;;;7.97;3.10;;;3.30;99.70;;;;;;5012360;28;20445;-65
2022/01/08 14:21:39;;;;;;;8.40;2.90;;;3.30;99.70;;;;;;5012028;28;20484;-67
2022/01/08 14:24:17;;;;;;;8.70;3.63;;;3.30;99.70;;;;;;5012218;28;20457;-65
2022/01/08 14:27:00;;;;;;;9.17;3.30;;;3.30;99.70;;;;;;5011647;28;20489;-65
2022/01/08 14:29:27;;;;;;;8.37;3.23;;;3.50;99.70;;;;;;5002355;28;20515;-67
2022/01/08 14:31:55;;;;;;;10.10;3.37;;;3.40;99.70;;;;;;4999481;28;20458;-65
2022/01/08 14:34:22;;;;;;;7.03;3.27;;;3.70;99.70;;;;;;5009839;28;20593;-65
2022/01/08 14:36:52;;;;;;;6.40;3.10;;;3.70;99.70;;;;;;5000611;28;20435;-66
2022/01/08 14:39:39;;;;;;;7.40;3.10;;;3.60;99.70;;;;;;4999606;28;20498;-64
2022/01/08 14:42:08;;;;;;;7.93;3.13;;;3.50;99.70;;;;;;5005893;28;20488;-67
2022/01/08 14:44:36;;;;;;;7.07;3.00;;;3.40;99.70;;;;;;5011459;28;20445;-66
2022/01/08 14:47:05;;;;;;;5.50;2.60;;;3.50;99.70;;;;;;5012160;28;20477;-67
2022/01/08 14:49:31;;;;;;;7.07;2.60;;;3.50;99.70;;;;;;5011255;28;20962;-67
2022/01/08 14:52:00;;;;;;;5.60;2.53;;;3.60;99.70;;;;;;5011845;28;20485;-67
2022/01/08 14:54:28;;;;;;;5.07;2.47;;;3.70;99.70;;;;;;5012208;28;20502;-65
2022/01/08 14:56:55;;;;;;;5.27;2.60;;;3.50;99.70;;;;;;5007871;28;20465;-65
2022/01/08 14:59:22;;;;;;;6.33;2.20;;;3.40;99.70;;;;;;5001032;28;20479;-66
2022/01/08 15:01:49;;;;;;;6.63;2.40;;;3.40;99.70;;;;;;5011062;28;21011;-67
2022/01/08 15:04:16;;;;;;;4.30;2.30;;;3.50;99.70;;;;;;5008168;28;20449;-66
2022/01/08 15:06:43;;;;;;;5.30;2.43;;;3.50;99.70;;;;;;5011097;28;20477;-67
2022/01/08 15:09:11;;;;;;;5.97;2.83;;;3.50;99.70;;;;;;5011298;28;20445;-65
2022/01/08 15:11:38;;;;;;;3.80;1.97;;;3.60;99.70;;;;;;5011445;28;20986;-65
2022/01/08 15:14:06;;;;;;;4.47;1.80;;;3.60;99.70;;;;;;5011557;28;20456;-65
2022/01/08 15:16:32;;;;;;;4.30;1.80;;;3.50;99.70;;;;;;5011712;28;20437;-66
2022/01/08 15:18:59;;;;;;;4.20;2.13;;;3.60;99.70;;;;;;5010771;28;20828;-66
2022/01/08 15:21:26;;;;;;;6.40;2.20;;;3.60;99.70;;;;;;5006669;28;20485;-65
2022/01/08 15:23:52;;;;;;;4.50;2.40;;;3.50;99.70;;;;;;5010595;28;20449;-67
2022/01/08 15:26:21;;;;;;;5.47;2.40;;;3.40;99.70;;;;;;5007436;28;20998;-64
2022/01/08 15:28:48;;;;;;;6.60;2.50;;;3.40;99.70;;;;;;5009088;28;20504;-64
2022/01/08 15:31:15;;;;;;;5.77;3.03;;;3.40;99.70;;;;;;5001661;28;20485;-66
2022/01/08 15:33:42;;;;;;;7.40;3.10;;;3.30;99.70;;;;;;5005659;28;20473;-64
2022/01/08 15:36:09;;;;;;;5.60;3.00;;;3.30;99.70;;;;;;5005018;28;20447;-66
2022/01/08 15:38:36;;;;;;;6.77;3.13;;;3.30;99.70;;;;;;5004090;28;20484;-66
2022/01/08 15:41:04;;;;;;;6.33;3.27;;;3.30;99.70;;;;;;5006426;28;20492;-66
2022/01/08 15:43:33;;;;;;;5.67;2.70;;;3.30;99.70;;;;;;5004966;28;20450;-65
2022/01/08 15:46:00;;;;;;;7.90;3.10;;;3.20;99.70;;;;;;5002614;28;20540;-67
2022/01/08 15:48:27;;;;;;;6.43;3.07;;;3.30;99.70;;;;;;5005624;28;20466;-66
2022/01/08 15:50:54;;;;;;;4.43;2.60;;;3.30;99.70;;;;;;5004873;28;20494;-65
2022/01/08 15:53:21;;;;;;;4.70;2.47;;;3.30;99.70;;;;;;5005684;28;20466;-66
2022/01/08 15:55:48;;;;;;;5.27;2.70;;;3.40;99.70;;;;;;5003533;28;20552;-67
2022/01/08 15:58:15;;;;;;;6.27;2.70;;;3.40;99.70;;;;;;5003575;28;20859;-65
2022/01/08 16:00:43;;;;;;;5.87;3.00;;;3.50;99.70;;;;;;5006389;28;20476;-64
2022/01/08 16:03:09;;;;;;;5.90;2.63;;;3.40;99.70;;;;;;5002879;28;20468;-66
2022/01/08 16:05:36;;;;;;;7.33;3.03;;;3.30;99.70;;;;;;4992984;28;20442;-65
2022/01/08 16:08:04;;;;;;;8.60;3.50;;;3.50;99.70;;;;;;5004023;28;20904;-67
2022/01/08 16:10:31;;;;;;;7.17;3.40;;;3.50;99.70;;;;;;5003796;28;20495;-65
2022/01/08 16:12:58;;;;;;;6.03;2.87;;;3.40;99.70;;;;;;5005865;28;20454;-65
2022/01/08 16:15:24;;;;;;;6.13;3.00;;;3.60;99.70;;;;;;5009262;28;20452;-66
2022/01/08 16:17:53;;;;;;;5.67;3.10;;;3.60;99.70;;;;;;5008831;28;20465;-65
2022/01/08 16:20:20;;;;;;;7.63;3.90;;;3.60;99.70;;;;;;5011213;28;20465;-66
2022/01/08 16:22:46;;;;;;;8.40;3.70;;;3.50;99.70;;;;;;5010699;28;20449;-66
2022/01/08 16:25:14;;;;;;;7.60;3.23;;;3.50;99.70;;;;;;5010795;28;20453;-65
2022/01/08 16:27:40;;;;;;;7.87;3.90;;;3.40;99.70;;;;;;5010280;28;20513;-65
2022/01/08 16:30:08;;;;;;;7.73;3.50;;;3.40;99.70;;;;;;5010452;28;21245;-65
2022/01/08 16:32:34;;;;;;;10.37;3.90;;;3.40;99.70;;;;;;5010658;28;20823;-66
2022/01/08 16:35:03;;;;;;;8.77;4.00;;;3.40;99.70;;;;;;5007008;28;20974;-65
2022/01/08 16:37:29;;;;;;;9.40;3.90;;;3.40;99.70;;;;;;5002493;28;20803;-66
2022/01/08 16:39:56;;;;;;;12.20;4.80;;;3.40;99.70;;;;;;5005354;28;20986;-65
2022/01/08 16:42:23;;;;;;;15.10;5.07;;;3.40;99.70;;;;;;5003576;28;20450;-66
2022/01/08 16:44:50;;;;;;;9.17;4.27;;;3.30;99.70;;;;;;4999831;28;20473;-65
2022/01/08 16:47:17;;;;;;;8.53;4.30;;;3.40;99.70;;;;;;4999105;28;20473;-65
2022/01/08 16:49:44;;;;;;;8.63;4.53;;;3.40;99.70;;;;;;5004770;28;20513;-66
2022/01/08 16:52:13;;;;;;;10.53;4.47;;;3.40;99.70;;;;;;5004665;28;20956;-65
2022/01/08 16:54:40;;;;;;;10.40;4.53;;;3.40;99.70;;;;;;5000887;28;20520;-68
2022/01/08 16:57:07;;;;;;;9.70;3.80;;;3.40;99.70;;;;;;5001652;28;20465;-65
2022/01/08 16:59:34;;;;;;;10.10;4.43;;;3.50;99.70;;;;;;5003713;28;20444;-65
2022/01/08 17:02:01;;;;;;;12.07;5.03;;;3.50;99.70;;;;;;5003849;28;20465;-67
2022/01/08 17:04:27;;;;;;;12.30;5.17;;;3.50;99.70;;;;;;5006472;28;20458;-65
2022/01/08 17:06:54;;;;;;;8.50;4.33;;;3.60;99.70;;;;;;5006678;28;20482;-65
2022/01/08 17:09:22;;;;;;;8.97;4.43;;;3.50;99.70;;;;;;5001437;28;20461;-66
2022/01/08 17:11:49;;;;;;;8.70;3.83;;;3.50;99.70;;;;;;5001438;28;20481;-66
2022/01/08 17:14:16;;;;;;;8.00;3.50;;;3.40;99.70;;;;;;5004529;28;20453;-66
2022/01/08 17:16:42;;;;;;;5.40;3.00;;;3.40;99.70;;;;;;5009592;28;20453;-65
2022/01/08 17:19:09;;;;;;;8.00;3.63;;;3.50;99.70;;;;;;5003070;28;20461;-65
2022/01/08 17:21:36;;;;;;;11.27;4.50;;;3.40;99.70;;;;;;5005651;28;20862;-65
2022/01/08 17:24:03;;;;;;;13.03;5.13;;;3.40;99.70;;;;;;5004229;28;20453;-66
2022/01/08 17:26:31;;;;;;;13.20;5.33;;;3.40;99.70;;;;;;5002906;28;20450;-65
2022/01/08 17:28:57;;;;;;;17.27;6.40;;;3.30;99.70;;;;;;5002589;28;20442;-65
2022/01/08 17:31:24;;;;;;;12.80;5.60;;;3.30;99.70;;;;;;5002996;28;20465;-65
2022/01/08 17:33:51;;;;;;;20.90;7.67;;;3.20;99.70;;;;;;5004819;28;20469;-66
2022/01/08 17:36:18;;;;;;;17.10;6.97;;;3.30;99.70;;;;;;5004018;28;20481;-64
2022/01/08 17:38:45;;;;;;;14.33;6.53;;;3.30;99.70;;;;;;5001424;28;20457;-66
2022/01/08 17:41:12;;;;;;;18.10;7.17;;;3.50;99.70;;;;;;5004680;28;20490;-65
2022/01/08 17:43:40;;;;;;;15.43;7.57;;;3.50;99.70;;;;;;5006008;28;20539;-68
2022/01/08 17:46:07;;;;;;;16.43;7.53;;;3.40;99.70;;;;;;5005222;28;20954;-65
2022/01/08 17:48:33;;;;;;;22.57;8.83;;;3.40;99.70;;;;;;5008397;28;20477;-66
2022/01/08 17:51:00;;;;;;;16.97;8.30;;;3.50;99.70;;;;;;5006935;28;20490;-65
2022/01/08 17:53:27;;;;;;;18.60;8.53;;;3.40;99.70;;;;;;5004305;28;20446;-65
2022/01/08 17:55:54;;;;;;;14.17;7.20;;;3.40;99.70;;;;;;5003350;28;20453;-67
2022/01/08 17:58:21;;;;;;;25.10;10.20;;;3.20;99.70;;;;;;4998646;28;20446;-67
2022/01/08 18:00:49;;;;;;;29.97;12.53;;;3.20;99.70;;;;;;4998509;28;20556;-65
2022/01/08 18:03:16;;;;;;;18.03;7.77;;;3.20;99.70;;;;;;5010022;28;20454;-66
2022/01/08 18:05:44;;;;;;;10.90;3.93;;;3.20;99.70;;;;;;5008615;28;20809;-66
2022/01/08 18:08:10;;;;;;;11.03;4.93;;;3.20;99.70;;;;;;5007329;28;20497;-66